sensor_id;sensor_type;location;lat;lon;timestamp;P1;durP1;ratioP1;P2;durP2;ratioP2
77866;SDS011;67271;59.120;37.970;2023-10-09T00:05:38;0.88;;;0.68;;
77866;SDS011;67271;59.120;37.970;2023-10-09T00:08:14;2.60;;;1.80;;
77866;SDS011;67271;59.120;37.970;2023-10-09T00:10:48;3.58;;;2.55;;
77866;SDS011;67271;59.120;37.970;2023-10-09T00:13:18;4.65;;;2.22;;
77866;SDS011;67271;59.120;37.970;2023-10-09T00:15:57;4.95;;;2.55;;
77866;SDS011;67271;59.120;37.970;2023-10-09T00:18:34;7.22;;;2.15;;
77866;SDS011;67271;59.120;37.970;2023-10-09T00:21:00;4.63;;;1.95;;
77866;SDS011;67271;59.120;37.970;2023-10-09T00:23:38;17.63;;;5.40;;
77866;SDS011;67271;59.120;37.970;2023-10-09T00:26:10;11.40;;;4.15;;
77866;SDS011;67271;59.120;37.970;2023-10-09T00:28:46;13.93;;;5.05;;
77866;SDS011;67271;59.120;37.970;2023-10-09T00:31:19;27.30;;;9.18;;
77866;SDS011;67271;59.120;37.970;2023-10-09T00:33:55;10.10;;;4.43;;
77866;SDS011;67271;59.120;37.970;2023-10-09T00:36:21;16.95;;;6.53;;
77866;SDS011;67271;59.120;37.970;2023-10-09T00:38:55;7.55;;;3.85;;
77866;SDS011;67271;59.120;37.970;2023-10-09T00:41:24;4.75;;;3.00;;
77866;SDS011;67271;59.120;37.970;2023-10-09T00:43:51;1.92;;;1.40;;
77866;SDS011;67271;59.120;37.970;2023-10-09T00:46:18;5.95;;;2.50;;
77866;SDS011;67271;59.120;37.970;2023-10-09T00:49:07;1.95;;;1.33;;
77866;SDS011;67271;59.120;37.970;2023-10-09T00:51:35;1.40;;;1.02;;
77866;SDS011;67271;59.120;37.970;2023-10-09T00:54:06;1.35;;;0.95;;
77866;SDS011;67271;59.120;37.970;2023-10-09T00:56:39;1.50;;;1.15;;
77866;SDS011;67271;59.120;37.970;2023-10-09T01:01:45;1.40;;;1.30;;
77866;SDS011;67271;59.120;37.970;2023-10-09T01:04:29;0.50;;;0.43;;
77866;SDS011;67271;59.120;37.970;2023-10-09T01:07:02;0.57;;;0.40;;
77866;SDS011;67271;59.120;37.970;2023-10-09T01:09:51;1.20;;;0.63;;
77866;SDS011;67271;59.120;37.970;2023-10-09T01:12:19;0.55;;;0.55;;
77866;SDS011;67271;59.120;37.970;2023-10-09T01:14:46;0.43;;;0.32;;
77866;SDS011;67271;59.120;37.970;2023-10-09T01:17:20;1.27;;;0.70;;
77866;SDS011;67271;59.120;37.970;2023-10-09T01:20:01;0.40;;;0.40;;
77866;SDS011;67271;59.120;37.970;2023-10-09T01:22:30;0.38;;;0.38;;
77866;SDS011;67271;59.120;37.970;2023-10-09T01:24:56;0.50;;;0.35;;
77866;SDS011;67271;59.120;37.970;2023-10-09T01:27:22;3.33;;;0.57;;
77866;SDS011;67271;59.120;37.970;2023-10-09T01:29:51;0.25;;;0.15;;
77866;SDS011;67271;59.120;37.970;2023-10-09T01:32:17;0.25;;;0.25;;
77866;SDS011;67271;59.120;37.970;2023-10-09T01:34:44;0.40;;;0.30;;
77866;SDS011;67271;59.120;37.970;2023-10-09T01:37:14;0.17;;;0.15;;
77866;SDS011;67271;59.120;37.970;2023-10-09T01:39:45;0.45;;;0.45;;
77866;SDS011;67271;59.120;37.970;2023-10-09T01:42:13;0.15;;;0.10;;
77866;SDS011;67271;59.120;37.970;2023-10-09T01:45:10;0.45;;;0.45;;
77866;SDS011;67271;59.120;37.970;2023-10-09T01:47:37;0.30;;;0.30;;
77866;SDS011;67271;59.120;37.970;2023-10-09T01:50:04;0.32;;;0.32;;
77866;SDS011;67271;59.120;37.970;2023-10-09T01:52:43;0.43;;;0.43;;
77866;SDS011;67271;59.120;37.970;2023-10-09T01:55:09;0.32;;;0.32;;
77866;SDS011;67271;59.120;37.970;2023-10-09T01:57:39;0.17;;;0.17;;
77866;SDS011;67271;59.120;37.970;2023-10-09T02:00:05;0.50;;;0.50;;
77866;SDS011;67271;59.120;37.970;2023-10-09T02:02:37;0.80;;;0.68;;
77866;SDS011;67271;59.120;37.970;2023-10-09T02:05:04;0.80;;;0.80;;
77866;SDS011;67271;59.120;37.970;2023-10-09T02:07:40;0.98;;;0.93;;
77866;SDS011;67271;59.120;37.970;2023-10-09T02:10:10;1.38;;;1.00;;
77866;SDS011;67271;59.120;37.970;2023-10-09T02:12:59;1.58;;;1.13;;
77866;SDS011;67271;59.120;37.970;2023-10-09T02:15:32;1.00;;;0.75;;
77866;SDS011;67271;59.120;37.970;2023-10-09T02:18:26;0.70;;;0.70;;
77866;SDS011;67271;59.120;37.970;2023-10-09T02:20:53;1.77;;;1.38;;
77866;SDS011;67271;59.120;37.970;2023-10-09T02:23:33;0.85;;;0.60;;
77866;SDS011;67271;59.120;37.970;2023-10-09T02:26:16;2.05;;;0.95;;
77866;SDS011;67271;59.120;37.970;2023-10-09T02:28:58;1.00;;;0.57;;
77866;SDS011;67271;59.120;37.970;2023-10-09T02:31:24;1.67;;;0.73;;
77866;SDS011;67271;59.120;37.970;2023-10-09T02:34:01;4.28;;;0.70;;
77866;SDS011;67271;59.120;37.970;2023-10-09T02:36:31;0.63;;;0.43;;
77866;SDS011;67271;59.120;37.970;2023-10-09T02:38:56;1.10;;;1.00;;
77866;SDS011;67271;59.120;37.970;2023-10-09T02:41:22;1.67;;;1.17;;
77866;SDS011;67271;59.120;37.970;2023-10-09T02:43:53;5.65;;;1.83;;
77866;SDS011;67271;59.120;37.970;2023-10-09T02:46:30;2.65;;;1.83;;
77866;SDS011;67271;59.120;37.970;2023-10-09T02:48:56;6.47;;;2.72;;
77866;SDS011;67271;59.120;37.970;2023-10-09T02:51:30;1.50;;;1.40;;
77866;SDS011;67271;59.120;37.970;2023-10-09T02:54:00;1.50;;;1.40;;
77866;SDS011;67271;59.120;37.970;2023-10-09T02:56:43;1.48;;;1.38;;
77866;SDS011;67271;59.120;37.970;2023-10-09T02:59:23;5.03;;;3.55;;
77866;SDS011;67271;59.120;37.970;2023-10-09T03:01:50;1.73;;;1.05;;
77866;SDS011;67271;59.120;37.970;2023-10-09T03:04:19;1.90;;;1.70;;
77866;SDS011;67271;59.120;37.970;2023-10-09T03:06:45;7.82;;;2.17;;
77866;SDS011;67271;59.120;37.970;2023-10-09T03:09:19;3.70;;;1.50;;
77866;SDS011;67271;59.120;37.970;2023-10-09T03:11:53;1.73;;;0.50;;
77866;SDS011;67271;59.120;37.970;2023-10-09T03:14:33;2.05;;;1.70;;
77866;SDS011;67271;59.120;37.970;2023-10-09T03:19:31;2.17;;;1.55;;
77866;SDS011;67271;59.120;37.970;2023-10-09T03:22:09;0.45;;;0.45;;
77866;SDS011;67271;59.120;37.970;2023-10-09T03:24:37;1.90;;;1.65;;
77866;SDS011;67271;59.120;37.970;2023-10-09T03:27:10;2.45;;;1.55;;
77866;SDS011;67271;59.120;37.970;2023-10-09T03:29:36;0.55;;;0.50;;
77866;SDS011;67271;59.120;37.970;2023-10-09T03:32:02;1.65;;;1.02;;
77866;SDS011;67271;59.120;37.970;2023-10-09T03:34:32;1.65;;;0.82;;
77866;SDS011;67271;59.120;37.970;2023-10-09T03:36:58;1.52;;;0.95;;
77866;SDS011;67271;59.120;37.970;2023-10-09T03:39:30;2.22;;;1.42;;
77866;SDS011;67271;59.120;37.970;2023-10-09T03:42:03;0.52;;;0.47;;
77866;SDS011;67271;59.120;37.970;2023-10-09T03:44:33;1.35;;;0.80;;
77866;SDS011;67271;59.120;37.970;2023-10-09T03:47:04;4.20;;;0.65;;
77866;SDS011;67271;59.120;37.970;2023-10-09T03:49:30;1.13;;;0.73;;
77866;SDS011;67271;59.120;37.970;2023-10-09T03:51:57;1.40;;;0.63;;
77866;SDS011;67271;59.120;37.970;2023-10-09T03:54:24;4.53;;;2.60;;
77866;SDS011;67271;59.120;37.970;2023-10-09T03:56:53;0.90;;;0.82;;
77866;SDS011;67271;59.120;37.970;2023-10-09T03:59:20;0.93;;;0.88;;
77866;SDS011;67271;59.120;37.970;2023-10-09T04:01:49;0.85;;;0.85;;
77866;SDS011;67271;59.120;37.970;2023-10-09T04:04:18;1.83;;;1.08;;
77866;SDS011;67271;59.120;37.970;2023-10-09T04:06:48;1.52;;;1.02;;
77866;SDS011;67271;59.120;37.970;2023-10-09T04:09:14;1.58;;;1.27;;
77866;SDS011;67271;59.120;37.970;2023-10-09T04:11:40;0.35;;;0.35;;
77866;SDS011;67271;59.120;37.970;2023-10-09T04:14:14;0.57;;;0.52;;
77866;SDS011;67271;59.120;37.970;2023-10-09T04:16:59;0.73;;;0.73;;
77866;SDS011;67271;59.120;37.970;2023-10-09T04:19:48;1.05;;;1.00;;
77866;SDS011;67271;59.120;37.970;2023-10-09T04:22:17;1.33;;;1.08;;
77866;SDS011;67271;59.120;37.970;2023-10-09T04:24:53;3.80;;;2.05;;
77866;SDS011;67271;59.120;37.970;2023-10-09T04:27:19;0.82;;;0.70;;
77866;SDS011;67271;59.120;37.970;2023-10-09T04:29:54;0.80;;;0.80;;
77866;SDS011;67271;59.120;37.970;2023-10-09T04:32:22;0.65;;;0.60;;
77866;SDS011;67271;59.120;37.970;2023-10-09T04:34:51;3.13;;;1.25;;
77866;SDS011;67271;59.120;37.970;2023-10-09T04:37:35;1.17;;;0.90;;
77866;SDS011;67271;59.120;37.970;2023-10-09T04:40:04;1.15;;;0.77;;
77866;SDS011;67271;59.120;37.970;2023-10-09T04:42:49;0.75;;;0.60;;
77866;SDS011;67271;59.120;37.970;2023-10-09T04:45:24;0.47;;;0.47;;
77866;SDS011;67271;59.120;37.970;2023-10-09T04:48:09;0.88;;;0.45;;
77866;SDS011;67271;59.120;37.970;2023-10-09T04:50:58;1.13;;;1.02;;
77866;SDS011;67271;59.120;37.970;2023-10-09T04:53:43;1.00;;;0.77;;
77866;SDS011;67271;59.120;37.970;2023-10-09T04:56:13;3.22;;;1.50;;
77866;SDS011;67271;59.120;37.970;2023-10-09T04:58:43;1.58;;;0.90;;
77866;SDS011;67271;59.120;37.970;2023-10-09T05:01:11;0.90;;;0.65;;
77866;SDS011;67271;59.120;37.970;2023-10-09T05:03:42;0.88;;;0.65;;
77866;SDS011;67271;59.120;37.970;2023-10-09T05:06:10;1.10;;;1.00;;
77866;SDS011;67271;59.120;37.970;2023-10-09T05:08:49;1.00;;;0.60;;
77866;SDS011;67271;59.120;37.970;2023-10-09T05:11:15;0.47;;;0.43;;
77866;SDS011;67271;59.120;37.970;2023-10-09T05:14:00;0.63;;;0.63;;
77866;SDS011;67271;59.120;37.970;2023-10-09T05:16:39;5.43;;;1.10;;
77866;SDS011;67271;59.120;37.970;2023-10-09T05:19:21;0.55;;;0.52;;
77866;SDS011;67271;59.120;37.970;2023-10-09T05:22:08;0.65;;;0.65;;
77866;SDS011;67271;59.120;37.970;2023-10-09T05:24:57;0.57;;;0.57;;
77866;SDS011;67271;59.120;37.970;2023-10-09T05:27:24;1.55;;;0.90;;
77866;SDS011;67271;59.120;37.970;2023-10-09T05:30:10;1.75;;;0.90;;
77866;SDS011;67271;59.120;37.970;2023-10-09T05:32:56;1.75;;;0.50;;
77866;SDS011;67271;59.120;37.970;2023-10-09T05:35:30;0.28;;;0.28;;
77866;SDS011;67271;59.120;37.970;2023-10-09T05:38:08;0.82;;;0.68;;
77866;SDS011;67271;59.120;37.970;2023-10-09T05:40:49;1.33;;;1.02;;
77866;SDS011;67271;59.120;37.970;2023-10-09T05:43:19;1.00;;;0.77;;
77866;SDS011;67271;59.120;37.970;2023-10-09T05:46:05;1.63;;;0.98;;
77866;SDS011;67271;59.120;37.970;2023-10-09T05:48:35;3.33;;;1.10;;
77866;SDS011;67271;59.120;37.970;2023-10-09T05:51:04;0.40;;;0.40;;
77866;SDS011;67271;59.120;37.970;2023-10-09T05:53:38;0.75;;;0.73;;
77866;SDS011;67271;59.120;37.970;2023-10-09T05:56:10;0.73;;;0.73;;
77866;SDS011;67271;59.120;37.970;2023-10-09T05:59:08;0.50;;;0.50;;
77866;SDS011;67271;59.120;37.970;2023-10-09T06:01:37;1.30;;;0.80;;
77866;SDS011;67271;59.120;37.970;2023-10-09T06:04:21;0.70;;;0.70;;
77866;SDS011;67271;59.120;37.970;2023-10-09T06:07:02;0.38;;;0.38;;
77866;SDS011;67271;59.120;37.970;2023-10-09T06:09:37;0.37;;;0.37;;
77866;SDS011;67271;59.120;37.970;2023-10-09T06:12:20;0.40;;;0.40;;
77866;SDS011;67271;59.120;37.970;2023-10-09T06:14:59;2.15;;;1.13;;
77866;SDS011;67271;59.120;37.970;2023-10-09T06:17:44;0.80;;;0.80;;
77866;SDS011;67271;59.120;37.970;2023-10-09T06:20:16;2.00;;;0.70;;
77866;SDS011;67271;59.120;37.970;2023-10-09T06:23:00;1.17;;;0.80;;
77866;SDS011;67271;59.120;37.970;2023-10-09T06:25:42;1.27;;;0.55;;
77866;SDS011;67271;59.120;37.970;2023-10-09T06:28:17;0.90;;;0.75;;
77866;SDS011;67271;59.120;37.970;2023-10-09T06:30:45;0.22;;;0.22;;
77866;SDS011;67271;59.120;37.970;2023-10-09T06:33:12;1.40;;;0.73;;
77866;SDS011;67271;59.120;37.970;2023-10-09T06:35:47;2.63;;;0.80;;
77866;SDS011;67271;59.120;37.970;2023-10-09T06:38:19;0.35;;;0.35;;
77866;SDS011;67271;59.120;37.970;2023-10-09T06:40:58;1.83;;;0.88;;
77866;SDS011;67271;59.120;37.970;2023-10-09T06:43:47;0.85;;;0.55;;
77866;SDS011;67271;59.120;37.970;2023-10-09T06:46:18;1.48;;;1.00;;
77866;SDS011;67271;59.120;37.970;2023-10-09T06:48:49;2.70;;;1.92;;
77866;SDS011;67271;59.120;37.970;2023-10-09T06:51:21;1.50;;;1.08;;
77866;SDS011;67271;59.120;37.970;2023-10-09T06:53:51;1.85;;;1.15;;
77866;SDS011;67271;59.120;37.970;2023-10-09T06:56:28;0.90;;;0.82;;
77866;SDS011;67271;59.120;37.970;2023-10-09T06:58:55;2.25;;;0.93;;
77866;SDS011;67271;59.120;37.970;2023-10-09T07:01:26;0.75;;;0.75;;
77866;SDS011;67271;59.120;37.970;2023-10-09T07:04:05;0.52;;;0.50;;
77866;SDS011;67271;59.120;37.970;2023-10-09T07:06:49;0.55;;;0.55;;
77866;SDS011;67271;59.120;37.970;2023-10-09T07:09:16;0.88;;;0.57;;
77866;SDS011;67271;59.120;37.970;2023-10-09T07:11:43;0.60;;;0.60;;
77866;SDS011;67271;59.120;37.970;2023-10-09T07:14:14;0.35;;;0.35;;
77866;SDS011;67271;59.120;37.970;2023-10-09T07:16:57;0.63;;;0.60;;
77866;SDS011;67271;59.120;37.970;2023-10-09T07:19:47;0.55;;;0.55;;
77866;SDS011;67271;59.120;37.970;2023-10-09T07:22:14;0.95;;;0.70;;
77866;SDS011;67271;59.120;37.970;2023-10-09T07:24:50;0.68;;;0.28;;
77866;SDS011;67271;59.120;37.970;2023-10-09T07:27:24;0.63;;;0.52;;
77866;SDS011;67271;59.120;37.970;2023-10-09T07:30:10;0.60;;;0.60;;
77866;SDS011;67271;59.120;37.970;2023-10-09T07:32:56;1.85;;;1.10;;
77866;SDS011;67271;59.120;37.970;2023-10-09T07:35:31;0.77;;;0.38;;
77866;SDS011;67271;59.120;37.970;2023-10-09T07:40:40;0.57;;;0.35;;
77866;SDS011;67271;59.120;37.970;2023-10-09T07:43:41;0.65;;;0.55;;
77866;SDS011;67271;59.120;37.970;2023-10-09T07:46:15;1.35;;;0.80;;
77866;SDS011;67271;59.120;37.970;2023-10-09T07:49:01;0.15;;;0.10;;
77866;SDS011;67271;59.120;37.970;2023-10-09T07:51:35;1.20;;;0.90;;
77866;SDS011;67271;59.120;37.970;2023-10-09T07:54:02;1.13;;;0.90;;
77866;SDS011;67271;59.120;37.970;2023-10-09T07:56:34;1.13;;;0.60;;
77866;SDS011;67271;59.120;37.970;2023-10-09T07:59:05;0.85;;;0.85;;
77866;SDS011;67271;59.120;37.970;2023-10-09T08:01:42;0.70;;;0.70;;
77866;SDS011;67271;59.120;37.970;2023-10-09T08:04:28;0.75;;;0.60;;
77866;SDS011;67271;59.120;37.970;2023-10-09T08:07:10;0.45;;;0.30;;
77866;SDS011;67271;59.120;37.970;2023-10-09T08:09:52;0.50;;;0.50;;
77866;SDS011;67271;59.120;37.970;2023-10-09T08:12:38;0.88;;;0.52;;
77866;SDS011;67271;59.120;37.970;2023-10-09T08:15:10;1.15;;;0.90;;
77866;SDS011;67271;59.120;37.970;2023-10-09T08:18:00;1.27;;;0.75;;
77866;SDS011;67271;59.120;37.970;2023-10-09T08:20:35;1.10;;;1.00;;
77866;SDS011;67271;59.120;37.970;2023-10-09T08:23:20;0.90;;;0.90;;
77866;SDS011;67271;59.120;37.970;2023-10-09T08:26:02;0.40;;;0.40;;
77866;SDS011;67271;59.120;37.970;2023-10-09T08:28:38;1.38;;;1.10;;
77866;SDS011;67271;59.120;37.970;2023-10-09T08:31:12;0.60;;;0.60;;
77866;SDS011;67271;59.120;37.970;2023-10-09T08:33:45;0.70;;;0.70;;
77866;SDS011;67271;59.120;37.970;2023-10-09T08:36:22;1.08;;;0.47;;
77866;SDS011;67271;59.120;37.970;2023-10-09T08:38:53;1.20;;;1.10;;
77866;SDS011;67271;59.120;37.970;2023-10-09T08:41:23;1.10;;;0.80;;
77866;SDS011;67271;59.120;37.970;2023-10-09T08:43:51;2.92;;;1.30;;
77866;SDS011;67271;59.120;37.970;2023-10-09T08:46:18;3.00;;;1.80;;
77866;SDS011;67271;59.120;37.970;2023-10-09T08:48:46;2.80;;;1.38;;
77866;SDS011;67271;59.120;37.970;2023-10-09T08:51:12;0.90;;;0.85;;
77866;SDS011;67271;59.120;37.970;2023-10-09T08:53:39;1.75;;;0.75;;
77866;SDS011;67271;59.120;37.970;2023-10-09T08:56:11;1.90;;;1.05;;
77866;SDS011;67271;59.120;37.970;2023-10-09T08:58:41;0.77;;;0.52;;
77866;SDS011;67271;59.120;37.970;2023-10-09T09:01:07;0.75;;;0.70;;
77866;SDS011;67271;59.120;37.970;2023-10-09T09:03:39;2.00;;;0.65;;
77866;SDS011;67271;59.120;37.970;2023-10-09T09:06:09;1.33;;;1.17;;
77866;SDS011;67271;59.120;37.970;2023-10-09T09:08:36;4.47;;;1.42;;
77866;SDS011;67271;59.120;37.970;2023-10-09T09:11:14;2.80;;;1.60;;
77866;SDS011;67271;59.120;37.970;2023-10-09T09:16:43;1.98;;;1.50;;
77866;SDS011;67271;59.120;37.970;2023-10-09T09:19:14;2.67;;;1.80;;
77866;SDS011;67271;59.120;37.970;2023-10-09T09:24:14;2.15;;;1.15;;
77866;SDS011;67271;59.120;37.970;2023-10-09T09:26:49;3.70;;;1.65;;
77866;SDS011;67271;59.120;37.970;2023-10-09T09:32:07;7.72;;;2.50;;
77866;SDS011;67271;59.120;37.970;2023-10-09T09:34:52;12.25;;;2.60;;
77866;SDS011;67271;59.120;37.970;2023-10-09T09:37:25;4.88;;;2.85;;
77866;SDS011;67271;59.120;37.970;2023-10-09T09:40:03;4.18;;;1.98;;
77866;SDS011;67271;59.120;37.970;2023-10-09T09:42:48;5.22;;;2.20;;
77866;SDS011;67271;59.120;37.970;2023-10-09T09:45:14;3.92;;;2.42;;
77866;SDS011;67271;59.120;37.970;2023-10-09T09:47:45;3.15;;;1.92;;
77866;SDS011;67271;59.120;37.970;2023-10-09T09:50:17;3.28;;;2.15;;
77866;SDS011;67271;59.120;37.970;2023-10-09T09:52:54;2.38;;;1.35;;
77866;SDS011;67271;59.120;37.970;2023-10-09T09:55:24;2.78;;;2.50;;
77866;SDS011;67271;59.120;37.970;2023-10-09T09:57:58;4.43;;;1.40;;
77866;SDS011;67271;59.120;37.970;2023-10-09T10:00:33;2.28;;;1.67;;
77866;SDS011;67271;59.120;37.970;2023-10-09T10:03:08;2.03;;;1.63;;
77866;SDS011;67271;59.120;37.970;2023-10-09T10:05:38;3.05;;;0.90;;
77866;SDS011;67271;59.120;37.970;2023-10-09T10:08:07;1.20;;;1.05;;
77866;SDS011;67271;59.120;37.970;2023-10-09T10:10:39;1.77;;;1.25;;
77866;SDS011;67271;59.120;37.970;2023-10-09T10:13:54;2.60;;;1.42;;
77866;SDS011;67271;59.120;37.970;2023-10-09T10:16:08;0.57;;;0.57;;
77866;SDS011;67271;59.120;37.970;2023-10-09T10:21:33;2.88;;;1.55;;
77866;SDS011;67271;59.120;37.970;2023-10-09T10:35:19;1.40;;;0.93;;
77866;SDS011;67271;59.120;37.970;2023-10-09T10:37:58;1.80;;;1.60;;
77866;SDS011;67271;59.120;37.970;2023-10-09T10:40:33;1.33;;;1.20;;
77866;SDS011;67271;59.120;37.970;2023-10-09T10:43:28;1.85;;;0.90;;
77866;SDS011;67271;59.120;37.970;2023-10-09T10:46:03;0.88;;;0.40;;
77866;SDS011;67271;59.120;37.970;2023-10-09T10:48:39;4.28;;;1.65;;
77866;SDS011;67271;59.120;37.970;2023-10-09T10:51:12;1.08;;;0.98;;
77866;SDS011;67271;59.120;37.970;2023-10-09T10:53:52;1.60;;;1.50;;
77866;SDS011;67271;59.120;37.970;2023-10-09T10:56:38;2.60;;;2.08;;
77866;SDS011;67271;59.120;37.970;2023-10-09T10:59:05;6.50;;;2.10;;
77866;SDS011;67271;59.120;37.970;2023-10-09T11:01:31;4.28;;;1.63;;
77866;SDS011;67271;59.120;37.970;2023-10-09T11:04:18;2.65;;;1.83;;
77866;SDS011;67271;59.120;37.970;2023-10-09T11:06:52;2.80;;;0.95;;
77866;SDS011;67271;59.120;37.970;2023-10-09T11:09:25;2.42;;;1.70;;
77866;SDS011;67271;59.120;37.970;2023-10-09T11:12:06;3.55;;;1.10;;
77866;SDS011;67271;59.120;37.970;2023-10-09T11:14:47;1.92;;;0.88;;
77866;SDS011;67271;59.120;37.970;2023-10-09T11:17:31;1.73;;;1.20;;
77866;SDS011;67271;59.120;37.970;2023-10-09T11:19:58;2.67;;;1.70;;
77866;SDS011;67271;59.120;37.970;2023-10-09T11:22:44;2.95;;;1.90;;
77866;SDS011;67271;59.120;37.970;2023-10-09T11:25:47;1.88;;;1.65;;
77866;SDS011;67271;59.120;37.970;2023-10-09T11:28:22;3.03;;;1.95;;
77866;SDS011;67271;59.120;37.970;2023-10-09T11:31:08;4.50;;;1.90;;
77866;SDS011;67271;59.120;37.970;2023-10-09T11:33:45;1.75;;;1.60;;
77866;SDS011;67271;59.120;37.970;2023-10-09T11:36:20;4.60;;;2.17;;
77866;SDS011;67271;59.120;37.970;2023-10-09T11:38:58;1.88;;;1.58;;
77866;SDS011;67271;59.120;37.970;2023-10-09T11:41:43;12.30;;;2.17;;
77866;SDS011;67271;59.120;37.970;2023-10-09T11:44:15;3.00;;;2.20;;
77866;SDS011;67271;59.120;37.970;2023-10-09T11:46:59;12.30;;;2.92;;
77866;SDS011;67271;59.120;37.970;2023-10-09T11:55:22;4.28;;;2.22;;
77866;SDS011;67271;59.120;37.970;2023-10-09T11:57:53;4.00;;;2.75;;
77866;SDS011;67271;59.120;37.970;2023-10-09T12:00:19;4.25;;;2.40;;
77866;SDS011;67271;59.120;37.970;2023-10-09T12:02:55;4.93;;;2.72;;
77866;SDS011;67271;59.120;37.970;2023-10-09T12:05:21;3.95;;;2.53;;
77866;SDS011;67271;59.120;37.970;2023-10-09T12:07:48;5.53;;;1.50;;
77866;SDS011;67271;59.120;37.970;2023-10-09T12:10:23;3.75;;;1.80;;
77866;SDS011;67271;59.120;37.970;2023-10-09T12:12:52;6.38;;;4.03;;
77866;SDS011;67271;59.120;37.970;2023-10-09T12:15:19;3.88;;;2.40;;
77866;SDS011;67271;59.120;37.970;2023-10-09T12:17:46;6.40;;;2.15;;
77866;SDS011;67271;59.120;37.970;2023-10-09T12:20:13;11.65;;;3.40;;
77866;SDS011;67271;59.120;37.970;2023-10-09T12:22:56;7.25;;;2.70;;
77866;SDS011;67271;59.120;37.970;2023-10-09T12:25:28;5.25;;;3.92;;
77866;SDS011;67271;59.120;37.970;2023-10-09T12:27:57;10.48;;;5.07;;
77866;SDS011;67271;59.120;37.970;2023-10-09T12:30:23;6.00;;;3.70;;
77866;SDS011;67271;59.120;37.970;2023-10-09T12:32:53;7.72;;;3.78;;
77866;SDS011;67271;59.120;37.970;2023-10-09T12:35:24;4.93;;;2.58;;
77866;SDS011;67271;59.120;37.970;2023-10-09T12:37:53;3.67;;;1.67;;
77866;SDS011;67271;59.120;37.970;2023-10-09T12:40:23;3.53;;;1.80;;
77866;SDS011;67271;59.120;37.970;2023-10-09T12:42:50;2.22;;;1.20;;
77866;SDS011;67271;59.120;37.970;2023-10-09T12:45:18;3.25;;;1.92;;
77866;SDS011;67271;59.120;37.970;2023-10-09T12:47:54;3.75;;;1.23;;
77866;SDS011;67271;59.120;37.970;2023-10-09T12:50:24;1.35;;;0.80;;
77866;SDS011;67271;59.120;37.970;2023-10-09T12:52:57;2.47;;;1.20;;
77866;SDS011;67271;59.120;37.970;2023-10-09T12:55:38;2.60;;;1.02;;
77866;SDS011;67271;59.120;37.970;2023-10-09T12:58:10;1.55;;;1.10;;
77866;SDS011;67271;59.120;37.970;2023-10-09T13:00:41;3.17;;;2.35;;
77866;SDS011;67271;59.120;37.970;2023-10-09T13:03:15;6.03;;;2.33;;
77866;SDS011;67271;59.120;37.970;2023-10-09T13:05:47;2.67;;;2.28;;
77866;SDS011;67271;59.120;37.970;2023-10-09T13:08:29;3.78;;;2.25;;
77866;SDS011;67271;59.120;37.970;2023-10-09T13:11:07;4.65;;;2.58;;
77866;SDS011;67271;59.120;37.970;2023-10-09T13:13:40;5.72;;;3.75;;
77866;SDS011;67271;59.120;37.970;2023-10-09T13:16:15;6.80;;;2.83;;
77866;SDS011;67271;59.120;37.970;2023-10-09T13:18:56;5.95;;;2.97;;
77866;SDS011;67271;59.120;37.970;2023-10-09T13:21:25;4.07;;;2.60;;
77866;SDS011;67271;59.120;37.970;2023-10-09T13:23:52;1.98;;;1.20;;
77866;SDS011;67271;59.120;37.970;2023-10-09T13:26:20;3.45;;;2.25;;
77866;SDS011;67271;59.120;37.970;2023-10-09T13:28:53;3.08;;;1.58;;
77866;SDS011;67271;59.120;37.970;2023-10-09T13:31:20;5.57;;;3.05;;
77866;SDS011;67271;59.120;37.970;2023-10-09T13:33:51;6.63;;;3.00;;
77866;SDS011;67271;59.120;37.970;2023-10-09T13:38:53;3.03;;;2.30;;
77866;SDS011;67271;59.120;37.970;2023-10-09T13:41:21;5.13;;;2.65;;
77866;SDS011;67271;59.120;37.970;2023-10-09T13:43:51;5.00;;;2.60;;
77866;SDS011;67271;59.120;37.970;2023-10-09T13:46:17;4.93;;;1.70;;
77866;SDS011;67271;59.120;37.970;2023-10-09T13:48:43;4.35;;;2.38;;
77866;SDS011;67271;59.120;37.970;2023-10-09T13:51:11;3.90;;;2.63;;
77866;SDS011;67271;59.120;37.970;2023-10-09T13:53:43;5.18;;;1.92;;
77866;SDS011;67271;59.120;37.970;2023-10-09T13:56:13;4.28;;;2.25;;
77866;SDS011;67271;59.120;37.970;2023-10-09T13:58:50;15.45;;;2.80;;
77866;SDS011;67271;59.120;37.970;2023-10-09T14:01:18;5.30;;;2.30;;
77866;SDS011;67271;59.120;37.970;2023-10-09T14:03:57;5.10;;;2.75;;
77866;SDS011;67271;59.120;37.970;2023-10-09T14:06:25;6.22;;;2.60;;
77866;SDS011;67271;59.120;37.970;2023-10-09T14:09:02;7.85;;;3.47;;
77866;SDS011;67271;59.120;37.970;2023-10-09T14:11:33;5.65;;;2.95;;
77866;SDS011;67271;59.120;37.970;2023-10-09T14:14:05;4.32;;;2.70;;
77866;SDS011;67271;59.120;37.970;2023-10-09T14:16:35;4.55;;;1.92;;
77866;SDS011;67271;59.120;37.970;2023-10-09T14:19:04;6.28;;;2.22;;
77866;SDS011;67271;59.120;37.970;2023-10-09T14:21:38;4.88;;;2.30;;
77866;SDS011;67271;59.120;37.970;2023-10-09T14:24:06;2.70;;;1.67;;
77866;SDS011;67271;59.120;37.970;2023-10-09T14:26:43;3.28;;;1.60;;
77866;SDS011;67271;59.120;37.970;2023-10-09T14:29:12;5.43;;;2.03;;
77866;SDS011;67271;59.120;37.970;2023-10-09T14:31:43;3.25;;;2.10;;
77866;SDS011;67271;59.120;37.970;2023-10-09T14:34:14;2.40;;;1.88;;
77866;SDS011;67271;59.120;37.970;2023-10-09T14:36:43;3.45;;;1.70;;
77866;SDS011;67271;59.120;37.970;2023-10-09T14:39:09;1.73;;;1.40;;
77866;SDS011;67271;59.120;37.970;2023-10-09T14:41:44;4.28;;;1.88;;
77866;SDS011;67271;59.120;37.970;2023-10-09T14:44:10;3.60;;;2.50;;
77866;SDS011;67271;59.120;37.970;2023-10-09T14:46:41;5.93;;;2.80;;
77866;SDS011;67271;59.120;37.970;2023-10-09T14:49:08;3.85;;;2.15;;
77866;SDS011;67271;59.120;37.970;2023-10-09T14:51:39;5.78;;;2.67;;
77866;SDS011;67271;59.120;37.970;2023-10-09T14:54:05;8.82;;;3.25;;
77866;SDS011;67271;59.120;37.970;2023-10-09T14:56:33;6.18;;;2.75;;
77866;SDS011;67271;59.120;37.970;2023-10-09T14:59:02;7.65;;;3.45;;
77866;SDS011;67271;59.120;37.970;2023-10-09T15:01:31;4.43;;;2.63;;
77866;SDS011;67271;59.120;37.970;2023-10-09T15:03:58;6.07;;;2.22;;
77866;SDS011;67271;59.120;37.970;2023-10-09T15:06:29;2.55;;;1.67;;
77866;SDS011;67271;59.120;37.970;2023-10-09T15:08:56;1.73;;;1.55;;
77866;SDS011;67271;59.120;37.970;2023-10-09T15:11:33;3.92;;;2.42;;
77866;SDS011;67271;59.120;37.970;2023-10-09T15:13:59;2.72;;;2.05;;
77866;SDS011;67271;59.120;37.970;2023-10-09T15:16:25;2.97;;;1.80;;
77866;SDS011;67271;59.120;37.970;2023-10-09T15:18:53;3.35;;;2.13;;
77866;SDS011;67271;59.120;37.970;2023-10-09T15:21:29;4.53;;;1.90;;
77866;SDS011;67271;59.120;37.970;2023-10-09T15:23:57;6.10;;;2.22;;
77866;SDS011;67271;59.120;37.970;2023-10-09T15:26:24;3.97;;;2.58;;
77866;SDS011;67271;59.120;37.970;2023-10-09T15:28:51;3.33;;;2.00;;
77866;SDS011;67271;59.120;37.970;2023-10-09T15:31:17;2.63;;;1.60;;
77866;SDS011;67271;59.120;37.970;2023-10-09T15:33:46;5.15;;;2.33;;
77866;SDS011;67271;59.120;37.970;2023-10-09T15:36:14;4.55;;;2.20;;
77866;SDS011;67271;59.120;37.970;2023-10-09T15:38:42;8.18;;;2.20;;
77866;SDS011;67271;59.120;37.970;2023-10-09T15:41:13;2.45;;;1.48;;
77866;SDS011;67271;59.120;37.970;2023-10-09T15:43:41;3.80;;;2.35;;
77866;SDS011;67271;59.120;37.970;2023-10-09T15:46:12;4.80;;;1.70;;
77866;SDS011;67271;59.120;37.970;2023-10-09T15:48:40;3.42;;;1.58;;
77866;SDS011;67271;59.120;37.970;2023-10-09T15:51:10;2.60;;;1.40;;
77866;SDS011;67271;59.120;37.970;2023-10-09T15:53:40;1.98;;;1.35;;